createdAt,value
2023-01-19T00:00:39.901Z,99267.19
2023-01-19T00:03:06.537Z,99263.56
2023-01-19T00:05:33.780Z,99266.91
2023-01-19T00:08:14.710Z,99265.78
2023-01-19T00:10:43.624Z,99264.47
2023-01-19T00:13:09.949Z,99266.00
2023-01-19T00:15:36.452Z,99278.81
2023-01-19T00:18:02.853Z,99271.56
2023-01-19T00:20:31.916Z,99274.72
2023-01-19T00:22:59.062Z,99273.47
2023-01-19T00:25:25.661Z,99273.16
2023-01-19T00:27:51.991Z,99283.47
2023-01-19T00:30:18.373Z,99276.88
2023-01-19T00:32:44.795Z,99280.06
2023-01-19T00:35:11.111Z,99293.16
2023-01-19T00:37:37.557Z,99276.13
2023-01-19T00:40:04.267Z,99285.59
2023-01-19T00:42:44.613Z,99289.75
2023-01-19T00:45:14.476Z,99278.19
2023-01-19T00:47:40.860Z,99284.19
2023-01-19T00:50:09.087Z,99289.31
2023-01-19T00:52:35.424Z,99290.00
2023-01-19T00:55:01.760Z,99283.69
2023-01-19T00:57:29.559Z,99281.91
2023-01-19T00:59:55.879Z,99274.78
2023-01-19T01:02:22.354Z,99287.88
2023-01-19T01:04:48.996Z,99281.59
2023-01-19T01:07:15.309Z,99260.19
2023-01-19T01:09:41.672Z,99270.69
2023-01-19T01:12:08.059Z,99277.66
2023-01-19T01:14:34.374Z,99267.84
2023-01-19T01:17:00.860Z,99273.84
2023-01-19T01:19:27.407Z,99280.97
2023-01-19T01:21:54.107Z,99277.34
2023-01-19T01:24:20.725Z,99282.50
2023-01-19T01:26:47.085Z,99275.38
2023-01-19T01:29:13.486Z,99285.84
2023-01-19T01:31:40.145Z,99282.19
2023-01-19T01:34:06.545Z,99275.91
2023-01-19T01:36:33.442Z,99286.38
2023-01-19T01:39:00.333Z,99280.09
2023-01-19T01:41:27.433Z,99271.97
2023-01-19T01:43:59.922Z,99277.25
2023-01-19T01:46:28.212Z,99281.56
2023-01-19T01:49:16.260Z,99284.09
2023-01-19T01:51:48.199Z,99268.84
2023-01-19T01:54:19.900Z,99272.34
2023-01-19T01:56:51.818Z,99276.66
2023-01-19T01:59:38.953Z,99271.34
2023-01-19T02:02:28.447Z,99282.81
2023-01-19T02:05:00.743Z,99284.47
2023-01-19T02:07:56.601Z,99275.69
2023-01-19T02:10:41.925Z,99277.50
2023-01-19T02:13:20.808Z,99278.31
2023-01-19T02:15:53.165Z,99273.03
2023-01-19T02:18:22.368Z,99274.84
2023-01-19T02:21:12.851Z,99270.38
2023-01-19T02:23:44.080Z,99280.81
2023-01-19T02:26:13.914Z,99281.81
2023-01-19T02:28:46.437Z,99286.97
2023-01-19T02:31:13.042Z,99277.31
2023-01-19T02:33:39.387Z,99278.03
2023-01-19T02:36:08.168Z,99284.16
2023-01-19T02:38:35.840Z,99278.72
2023-01-19T02:41:04.572Z,99281.19
2023-01-19T02:43:32.081Z,99279.41
2023-01-19T02:45:58.863Z,99282.88
2023-01-19T02:48:25.312Z,99280.22
2023-01-19T02:50:57.359Z,99278.25
2023-01-19T02:53:32.735Z,99279.91
2023-01-19T02:56:28.504Z,99275.44
2023-01-19T02:58:58.877Z,99269.13
2023-01-19T03:01:44.002Z,99265.63
2023-01-19T03:04:24.991Z,99270.13
2023-01-19T03:07:14.296Z,99267.47
2023-01-19T03:09:58.069Z,99268.47
2023-01-19T03:12:35.623Z,99260.63
2023-01-19T03:15:13.436Z,99256.47
2023-01-19T03:17:42.728Z,99260.13
2023-01-19T03:20:13.601Z,99263.75
2023-01-19T03:22:40.820Z,99262.09
2023-01-19T03:25:08.814Z,99262.09
2023-01-19T03:27:41.077Z,99262.09
2023-01-19T03:30:20.027Z,99256.78
2023-01-19T03:32:59.054Z,99251.59
2023-01-19T03:35:31.555Z,99255.94
2023-01-19T03:38:00.207Z,99261.25
2023-01-19T03:40:29.310Z,99263.09
2023-01-19T03:42:56.443Z,99257.78
2023-01-19T03:45:23.541Z,99260.44
2023-01-19T03:47:50.379Z,99262.09
2023-01-19T03:50:29.555Z,99266.41
2023-01-19T03:53:06.792Z,99261.09
2023-01-19T03:55:34.802Z,99260.44
2023-01-19T03:58:01.163Z,99262.91
2023-01-19T04:00:27.556Z,99262.91
2023-01-19T04:02:53.943Z,99265.75
2023-01-19T04:05:20.348Z,99262.91
2023-01-19T04:07:50.712Z,99263.75
2023-01-19T04:10:18.558Z,99261.09
2023-01-19T04:12:45.503Z,99255.78
2023-01-19T04:15:12.306Z,99257.59
2023-01-19T04:17:39.519Z,99262.09
2023-01-19T04:20:07.726Z,99261.09
2023-01-19T04:22:35.372Z,99262.91
2023-01-19T04:25:01.715Z,99255.78
2023-01-19T04:27:28.731Z,99253.97
2023-01-19T04:29:55.068Z,99253.97
2023-01-19T04:32:21.499Z,99252.16
2023-01-19T04:34:48.108Z,99251.16
2023-01-19T04:37:14.460Z,99249.19
2023-01-19T04:39:40.853Z,99250.00
2023-01-19T04:42:07.547Z,99256.16
2023-01-19T04:44:34.037Z,99253.19
2023-01-19T04:47:01.486Z,99251.53
2023-01-19T04:49:27.847Z,99251.38
2023-01-19T04:51:54.476Z,99250.38
2023-01-19T04:54:21.674Z,99253.03
2023-01-19T04:56:48.159Z,99248.56
2023-01-19T04:59:14.544Z,99249.38
2023-01-19T05:01:40.950Z,99258.22
2023-01-19T05:04:08.380Z,99247.59
2023-01-19T05:06:35.032Z,99238.75
2023-01-19T05:09:01.464Z,99250.25
2023-01-19T05:11:27.785Z,99249.38
2023-01-19T05:13:54.202Z,99254.69
2023-01-19T05:16:20.658Z,99263.53
2023-01-19T05:18:47.064Z,99253.88
2023-01-19T05:21:13.432Z,99254.88
2023-01-19T05:23:39.781Z,99255.84
2023-01-19T05:26:06.288Z,99247.88
2023-01-19T05:28:33.435Z,99243.56
2023-01-19T05:30:59.917Z,99253.34
2023-01-19T05:33:26.331Z,99249.88
2023-01-19T05:35:53.888Z,99245.53
2023-01-19T05:38:34.244Z,99242.88
2023-01-19T05:41:01.608Z,99243.88
2023-01-19T05:43:28.005Z,99243.19
2023-01-19T05:45:54.355Z,99244.19
2023-01-19T05:48:20.715Z,99247.16
2023-01-19T05:50:49.361Z,99248.13
2023-01-19T05:53:16.464Z,99257.91
2023-01-19T05:55:42.996Z,99248.28
2023-01-19T05:58:09.329Z,99250.94
2023-01-19T06:00:35.686Z,99250.94
2023-01-19T06:03:02.528Z,99255.41
2023-01-19T06:05:29.687Z,99255.56
2023-01-19T06:07:57.038Z,99257.53
2023-01-19T06:10:23.518Z,99256.84
2023-01-19T06:12:50.102Z,99257.03
2023-01-19T06:15:16.810Z,99266.13
2023-01-19T06:17:43.160Z,99267.09
2023-01-19T06:20:10.434Z,99271.56
2023-01-19T06:22:36.904Z,99270.06
2023-01-19T06:25:03.370Z,99274.53
2023-01-19T06:27:29.929Z,99263.94
2023-01-19T06:29:56.295Z,99270.88
2023-01-19T06:32:22.760Z,99271.88
2023-01-19T06:34:49.086Z,99273.53
2023-01-19T06:37:16.664Z,99284.16
2023-01-19T06:39:45.134Z,99290.16
2023-01-19T06:42:11.552Z,99284.84
2023-01-19T06:44:38.036Z,99285.84
2023-01-19T06:47:15.580Z,99285.69
2023-01-19T06:49:42.472Z,99295.16
2023-01-19T06:52:15.713Z,99298.50
2023-01-19T06:54:43.343Z,99301.03
2023-01-19T06:57:11.989Z,99303.50
2023-01-19T06:59:38.779Z,99312.16
2023-01-19T07:02:27.212Z,99318.28
2023-01-19T07:04:51.795Z,99322.78
2023-01-19T07:07:18.281Z,99326.25
2023-01-19T07:09:44.612Z,99321.78
2023-01-19T07:12:10.972Z,99322.78
2023-01-19T07:14:37.361Z,99328.91
2023-01-19T07:17:07.456Z,99329.75
2023-01-19T07:19:35.173Z,99331.56
2023-01-19T07:22:02.282Z,99343.19
2023-01-19T07:24:30.524Z,99346.66
2023-01-19T07:26:56.891Z,99345.84
2023-01-19T07:29:23.247Z,99339.69
2023-01-19T07:31:50.108Z,99350.97
2023-01-19T07:34:16.866Z,99350.16
2023-01-19T07:36:43.999Z,99352.66
2023-01-19T07:39:10.338Z,99357.97
2023-01-19T07:41:36.696Z,99370.94
2023-01-19T07:44:03.315Z,99365.63
2023-01-19T07:46:29.743Z,99377.78
2023-01-19T07:48:56.311Z,99382.09
2023-01-19T07:51:23.012Z,99385.59
2023-01-19T07:53:50.408Z,99399.53
2023-01-19T07:56:16.835Z,99396.88
2023-01-19T07:58:43.588Z,99394.22
2023-01-19T08:01:13.531Z,99408.38
2023-01-19T08:03:40.060Z,99411.03
2023-01-19T08:06:06.883Z,99417.16
2023-01-19T08:08:33.909Z,99424.13
2023-01-19T08:11:00.435Z,99424.97
2023-01-19T08:13:26.892Z,99421.47
2023-01-19T08:15:54.062Z,99430.28
2023-01-19T08:18:21.276Z,99442.59
2023-01-19T08:20:47.709Z,99442.41
2023-01-19T08:23:14.238Z,99450.38
2023-01-19T08:25:44.304Z,99458.06
2023-01-19T08:28:13.391Z,99467.72
2023-01-19T08:30:44.578Z,99465.75
2023-01-19T08:33:12.582Z,99471.72
2023-01-19T08:35:43.411Z,99475.91
2023-01-19T08:38:10.375Z,99474.94
2023-01-19T08:40:38.999Z,99479.13
2023-01-19T08:43:07.955Z,99483.28
2023-01-19T08:45:41.353Z,99487.47
2023-01-19T08:48:08.109Z,99491.78
2023-01-19T08:50:34.737Z,99497.78
2023-01-19T08:53:03.406Z,99504.47
2023-01-19T08:55:30.368Z,99502.50
2023-01-19T08:58:00.000Z,99497.72
2023-01-19T09:00:27.169Z,99503.56
2023-01-19T09:02:54.286Z,99505.91
2023-01-19T09:05:20.916Z,99512.75
2023-01-19T09:07:48.197Z,99525.59
2023-01-19T09:10:15.956Z,99519.97
2023-01-19T09:12:43.882Z,99521.66
2023-01-19T09:15:13.719Z,99524.84
2023-01-19T09:17:42.140Z,99530.00
2023-01-19T09:20:09.234Z,99533.34
2023-01-19T09:22:35.690Z,99543.69
2023-01-19T09:25:02.533Z,99542.53
2023-01-19T09:27:28.864Z,99545.06
2023-01-19T09:29:55.198Z,99544.06
2023-01-19T09:32:24.300Z,99546.41
2023-01-19T09:34:51.022Z,99549.94
2023-01-19T09:37:17.505Z,99557.75
2023-01-19T09:39:43.878Z,99561.09
2023-01-19T09:42:35.195Z,99560.09
2023-01-19T09:45:05.791Z,99577.56
2023-01-19T09:47:35.551Z,99575.72
2023-01-19T09:50:06.717Z,99582.75
2023-01-19T09:52:39.473Z,99589.72
2023-01-19T09:55:20.464Z,99587.91
2023-01-19T09:57:46.796Z,99587.75
2023-01-19T10:00:19.044Z,99599.09
2023-01-19T10:02:56.336Z,99594.47
2023-01-19T10:05:28.807Z,99597.78
2023-01-19T10:08:16.374Z,99601.97
2023-01-19T10:10:47.893Z,99615.13
2023-01-19T10:13:14.185Z,99615.94
2023-01-19T10:16:02.023Z,99620.44
2023-01-19T10:18:43.153Z,99629.09
2023-01-19T10:21:18.068Z,99620.00
2023-01-19T10:23:52.336Z,99625.97
2023-01-19T10:26:28.041Z,99634.66
2023-01-19T10:28:57.512Z,99630.53
2023-01-19T10:31:24.539Z,99634.03
2023-01-19T10:33:52.524Z,99638.53
2023-01-19T10:36:24.147Z,99641.88
2023-01-19T10:38:50.901Z,99645.22
2023-01-19T10:41:38.895Z,99640.59
2023-01-19T10:44:05.742Z,99645.59
2023-01-19T10:46:42.016Z,99648.78
2023-01-19T10:49:27.959Z,99644.84
2023-01-19T10:51:57.197Z,99657.00
2023-01-19T10:54:25.420Z,99648.72
2023-01-19T10:57:38.260Z,99659.88
2023-01-19T11:00:33.923Z,99653.41
2023-01-19T11:03:00.929Z,99653.97
2023-01-19T11:05:32.862Z,99659.00
2023-01-19T11:07:59.490Z,99657.88
2023-01-19T11:10:30.330Z,99662.88
2023-01-19T11:13:07.578Z,99661.75
2023-01-19T11:15:58.607Z,99668.28
2023-01-19T11:18:31.292Z,99668.34
2023-01-19T11:21:02.162Z,99670.22
2023-01-19T11:23:32.583Z,99674.59
2023-01-19T11:26:01.960Z,99666.53
2023-01-19T11:28:34.536Z,99669.09
2023-01-19T11:31:11.062Z,99658.34
2023-01-19T11:33:45.145Z,99659.72
2023-01-19T11:36:33.299Z,99655.78
2023-01-19T11:39:23.752Z,99660.69
2023-01-19T11:41:54.912Z,99655.19
2023-01-19T11:44:25.252Z,99653.41
2023-01-19T11:46:58.528Z,99652.28
2023-01-19T11:49:32.962Z,99652.31
2023-01-19T11:52:17.826Z,99639.81
2023-01-19T11:54:56.124Z,99657.69
2023-01-19T11:57:22.758Z,99647.34
2023-01-19T11:59:51.969Z,99656.72
2023-01-19T12:02:31.980Z,99653.53
2023-01-19T12:05:04.013Z,99645.22
2023-01-19T12:07:34.813Z,99667.06
2023-01-19T12:10:29.714Z,99663.03
2023-01-19T12:12:57.306Z,99664.41
2023-01-19T12:15:41.863Z,99663.91
2023-01-19T12:18:17.830Z,99660.91
2023-01-19T12:20:49.657Z,99658.72
2023-01-19T12:23:22.454Z,99659.25
2023-01-19T12:25:58.171Z,99655.22
2023-01-19T12:28:31.436Z,99665.41
2023-01-19T12:31:00.262Z,99664.09
2023-01-19T12:33:26.602Z,99657.56
2023-01-19T12:36:00.902Z,99661.72
2023-01-19T12:38:48.865Z,99663.22
2023-01-19T12:41:22.525Z,99665.91
2023-01-19T12:44:11.082Z,99671.25
2023-01-19T12:47:06.417Z,99677.44
2023-01-19T12:49:38.691Z,99670.41
2023-01-19T12:52:17.340Z,99678.28
2023-01-19T12:54:58.260Z,99683.78
2023-01-19T12:57:38.971Z,99678.28
2023-01-19T13:00:25.289Z,99678.09
2023-01-19T13:02:55.755Z,99678.44
2023-01-19T13:05:24.386Z,99675.59
2023-01-19T13:08:03.126Z,99686.78
2023-01-19T13:11:00.698Z,99694.63
2023-01-19T13:13:36.835Z,99698.00
2023-01-19T13:16:18.496Z,99694.97
2023-01-19T13:18:58.690Z,99695.69
2023-01-19T13:21:49.505Z,99697.66
2023-01-19T13:24:19.210Z,99702.50
2023-01-19T13:26:51.469Z,99701.00
2023-01-19T13:29:32.983Z,99703.50
2023-01-19T13:32:05.138Z,99697.81
2023-01-19T13:34:42.346Z,99700.16
2023-01-19T13:37:18.599Z,99701.81
2023-01-19T13:40:01.221Z,99702.66
2023-01-19T13:42:35.955Z,99704.16
2023-01-19T13:45:15.583Z,99707.34
2023-01-19T13:47:46.696Z,99710.50
2023-01-19T13:50:34.242Z,99712.66
2023-01-19T13:53:01.387Z,99714.16
2023-01-19T13:55:30.126Z,99720.50
2023-01-19T13:57:56.821Z,99724.53
2023-01-19T14:00:25.869Z,99726.06
2023-01-19T14:03:02.536Z,99731.22
2023-01-19T14:05:37.613Z,99738.09
2023-01-19T14:08:13.000Z,99737.25
2023-01-19T14:11:01.186Z,99746.78
2023-01-19T14:13:43.129Z,99747.75
2023-01-19T14:16:17.193Z,99755.41
2023-01-19T14:18:43.778Z,99754.25
2023-01-19T14:21:14.744Z,99759.25
2023-01-19T14:24:10.435Z,99756.41
2023-01-19T14:26:48.949Z,99761.72
2023-01-19T14:29:24.416Z,99760.56
2023-01-19T14:31:59.945Z,99771.22
2023-01-19T14:34:43.196Z,99764.19
2023-01-19T14:37:38.075Z,99777.69
2023-01-19T14:40:14.760Z,99767.97
2023-01-19T14:42:54.687Z,99770.78
2023-01-19T14:45:30.239Z,99772.56
2023-01-19T14:48:05.004Z,99771.53
2023-01-19T14:50:37.541Z,99779.34
2023-01-19T14:53:27.872Z,99784.47
2023-01-19T14:55:59.210Z,99787.09
2023-01-19T14:58:29.507Z,99791.22
2023-01-19T15:00:56.271Z,99795.34
2023-01-19T15:03:26.848Z,99791.66
2023-01-19T15:06:04.296Z,99795.75
2023-01-19T15:08:34.129Z,99805.09
2023-01-19T15:11:10.780Z,99806.56
2023-01-19T15:13:38.991Z,99813.34
2023-01-19T15:16:06.714Z,99810.28
2023-01-19T15:18:33.247Z,99817.91
2023-01-19T15:21:03.010Z,99814.72
2023-01-19T15:23:32.872Z,99823.84
2023-01-19T15:26:01.319Z,99826.00
2023-01-19T15:28:28.106Z,99824.31
2023-01-19T15:30:54.591Z,99823.47
2023-01-19T15:33:26.795Z,99831.63
2023-01-19T15:35:53.639Z,99832.78
2023-01-19T15:38:20.079Z,99833.22
2023-01-19T15:40:51.229Z,99849.66
2023-01-19T15:43:17.971Z,99842.13
2023-01-19T15:45:59.832Z,99838.25
2023-01-19T15:48:26.221Z,99847.66
2023-01-19T15:50:52.638Z,99848.28
2023-01-19T15:53:21.064Z,99847.19
2023-01-19T15:55:52.584Z,99846.13
2023-01-19T15:58:20.548Z,99853.88
2023-01-19T16:00:55.059Z,99856.97
2023-01-19T16:03:21.802Z,99870.72
2023-01-19T16:05:48.643Z,99865.81
2023-01-19T16:08:15.175Z,99875.06
2023-01-19T16:10:42.169Z,99877.03
2023-01-19T16:13:10.367Z,99885.19
2023-01-19T16:15:38.053Z,99882.66
2023-01-19T16:18:05.544Z,99887.97
2023-01-19T16:20:32.081Z,99885.47
2023-01-19T16:23:09.706Z,99895.13
2023-01-19T16:25:40.516Z,99901.16
2023-01-19T16:28:08.148Z,99901.16
2023-01-19T16:30:34.523Z,99904.50
2023-01-19T16:33:00.935Z,99907.19
2023-01-19T16:35:27.272Z,99908.84
2023-01-19T16:37:53.720Z,99906.19
2023-01-19T16:40:20.353Z,99911.50
2023-01-19T16:42:47.273Z,99914.16
2023-01-19T16:45:13.813Z,99917.66
2023-01-19T16:47:40.299Z,99922.16
2023-01-19T16:50:09.938Z,99923.81
2023-01-19T16:52:36.504Z,99924.69
2023-01-19T16:55:06.914Z,99931.66
2023-01-19T16:57:33.277Z,99932.50
2023-01-19T16:59:59.825Z,99931.53
2023-01-19T17:02:26.255Z,99936.84
2023-01-19T17:04:52.652Z,99940.34
2023-01-19T17:07:19.502Z,99941.47
2023-01-19T17:09:45.908Z,99945.97
2023-01-19T17:12:12.600Z,99947.94
2023-01-19T17:14:39.442Z,99943.72
2023-01-19T17:17:09.153Z,99949.34
2023-01-19T17:19:35.787Z,99958.59
2023-01-19T17:22:02.268Z,99949.25
2023-01-19T17:24:28.738Z,99957.47
2023-01-19T17:26:55.066Z,99964.09
2023-01-19T17:29:21.540Z,99959.91
2023-01-19T17:31:53.056Z,99959.19
2023-01-19T17:34:19.394Z,99965.63
2023-01-19T17:36:45.820Z,99967.59
2023-01-19T17:39:14.937Z,99972.91
2023-01-19T17:41:41.476Z,99974.91
2023-01-19T17:44:08.004Z,99974.91
2023-01-19T17:46:37.131Z,99980.22
2023-01-19T17:49:06.218Z,99975.75
2023-01-19T17:51:33.356Z,99978.25
2023-01-19T17:53:59.878Z,99982.59
2023-01-19T17:56:30.238Z,99984.13
2023-01-19T17:58:58.605Z,99987.50
2023-01-19T18:01:27.702Z,99986.38
2023-01-19T18:03:54.516Z,99984.38
2023-01-19T18:06:21.052Z,99984.09
2023-01-19T18:08:48.636Z,99977.81
2023-01-19T18:11:18.184Z,99988.28
2023-01-19T18:13:46.190Z,99994.47
2023-01-19T18:16:17.256Z,99990.81
2023-01-19T18:18:44.169Z,99996.13
2023-01-19T18:21:13.056Z,99993.59
2023-01-19T18:23:39.912Z,100000.63
2023-01-19T18:26:09.250Z,99997.25
2023-01-19T18:28:36.458Z,100008.75
2023-01-19T18:31:07.146Z,99999.94
2023-01-19T18:33:34.087Z,100003.41
2023-01-19T18:36:00.472Z,100008.75
2023-01-19T18:38:27.123Z,100008.75
2023-01-19T18:41:01.649Z,100014.91
2023-01-19T18:43:28.168Z,100016.72
2023-01-19T18:45:54.546Z,100015.75
2023-01-19T18:48:20.965Z,100015.75
2023-01-19T18:50:47.387Z,100016.59
2023-01-19T18:53:13.811Z,100021.09
2023-01-19T18:55:40.149Z,100010.56
2023-01-19T18:58:07.097Z,100017.56
2023-01-19T19:00:33.574Z,100022.22
2023-01-19T19:02:59.979Z,100029.31
2023-01-19T19:05:26.369Z,100025.00
2023-01-19T19:07:52.830Z,100021.50
2023-01-19T19:10:19.230Z,100029.47
2023-01-19T19:12:45.641Z,100023.34
2023-01-19T19:15:12.071Z,100026.00
2023-01-19T19:17:38.395Z,100030.44
2023-01-19T19:20:05.210Z,100033.09
2023-01-19T19:22:31.687Z,100030.59
2023-01-19T19:24:58.049Z,100036.94
2023-01-19T19:27:24.408Z,100046.84
2023-01-19T19:29:50.797Z,100043.50
2023-01-19T19:32:20.426Z,100048.81
2023-01-19T19:34:52.670Z,100051.47
2023-01-19T19:37:19.897Z,100048.81
2023-01-19T19:39:47.763Z,100047.16
2023-01-19T19:42:14.194Z,100049.81
2023-01-19T19:44:40.616Z,100054.13
2023-01-19T19:47:07.067Z,100059.59
2023-01-19T19:49:33.692Z,100057.78
2023-01-19T19:52:00.093Z,100060.56
2023-01-19T19:54:26.551Z,100057.09
2023-01-19T19:56:53.607Z,100062.53
2023-01-19T19:59:20.064Z,100069.13
2023-01-19T20:01:47.134Z,100074.56
2023-01-19T20:04:14.345Z,100068.72
2023-01-19T20:06:44.576Z,100071.50
2023-01-19T20:09:15.727Z,100069.81
2023-01-19T20:11:44.291Z,100072.63
2023-01-19T20:14:12.224Z,100069.25
2023-01-19T20:16:39.535Z,100079.19
2023-01-19T20:19:06.468Z,100070.34
2023-01-19T20:21:35.828Z,100071.34
2023-01-19T20:24:08.878Z,100078.50
2023-01-19T20:26:38.971Z,100085.63
2023-01-19T20:29:06.876Z,100087.44
2023-01-19T20:31:36.714Z,100090.97
2023-01-19T20:34:05.548Z,100091.91
2023-01-19T20:36:31.996Z,100096.41
2023-01-19T20:38:58.789Z,100094.56
2023-01-19T20:41:26.546Z,100098.94
2023-01-19T20:43:53.359Z,100105.94
2023-01-19T20:46:20.297Z,100099.63
2023-01-19T20:48:50.729Z,100113.91
2023-01-19T20:51:18.696Z,100113.91
2023-01-19T20:53:45.115Z,100119.34
2023-01-19T20:56:13.715Z,100122.16
2023-01-19T20:58:40.951Z,100121.44
2023-01-19T21:01:16.744Z,100125.78
2023-01-19T21:03:43.567Z,100118.09
2023-01-19T21:06:10.592Z,100135.88
2023-01-19T21:08:37.243Z,100136.97
2023-01-19T21:11:20.939Z,100137.97
2023-01-19T21:13:48.791Z,100138.91
2023-01-19T21:16:15.546Z,100147.06
2023-01-19T21:18:41.926Z,100155.16
2023-01-19T21:21:15.003Z,100157.81
2023-01-19T21:23:47.508Z,100154.31
2023-01-19T21:26:14.666Z,100158.81
2023-01-19T21:28:41.693Z,100168.59
2023-01-19T21:31:13.813Z,100175.72
2023-01-19T21:33:42.241Z,100182.00
2023-01-19T21:36:10.448Z,100182.00
2023-01-19T21:38:38.075Z,100183.97
2023-01-19T21:41:10.970Z,100188.44
2023-01-19T21:43:38.923Z,100188.56
2023-01-19T21:46:32.109Z,100193.88
2023-01-19T21:49:00.894Z,100188.72
2023-01-19T21:51:28.868Z,100197.69
2023-01-19T21:53:59.386Z,100200.47
2023-01-19T21:56:27.441Z,100199.75
2023-01-19T21:58:56.058Z,100213.19
2023-01-19T22:01:23.679Z,100208.81
2023-01-19T22:03:54.756Z,100212.47
2023-01-19T22:06:21.821Z,100217.78
2023-01-19T22:08:48.248Z,100217.06
2023-01-19T22:11:18.243Z,100223.38
2023-01-19T22:13:45.092Z,100221.69
2023-01-19T22:16:14.403Z,100221.81
2023-01-19T22:18:43.706Z,100226.44
2023-01-19T22:21:19.160Z,100221.38
2023-01-19T22:23:49.767Z,100233.13
2023-01-19T22:26:16.513Z,100233.25
2023-01-19T22:28:43.046Z,100233.38
2023-01-19T22:31:14.472Z,100231.69
2023-01-19T22:33:41.358Z,100236.16
2023-01-19T22:36:21.709Z,100234.50
2023-01-19T22:38:54.900Z,100234.63
2023-01-19T22:41:23.792Z,100232.06
2023-01-19T22:43:52.585Z,100232.06
2023-01-19T22:46:25.002Z,100234.72
2023-01-19T22:48:52.618Z,100233.06
2023-01-19T22:51:20.228Z,100241.03
2023-01-19T22:53:47.017Z,100235.59
2023-01-19T22:56:19.495Z,100234.50
2023-01-19T22:58:46.960Z,100237.16
2023-01-19T23:01:16.423Z,100238.69
2023-01-19T23:03:43.421Z,100244.84
2023-01-19T23:06:12.907Z,100240.25
2023-01-19T23:08:40.484Z,100243.75
2023-01-19T23:11:21.867Z,100245.56
2023-01-19T23:13:49.352Z,100246.41
2023-01-19T23:16:15.860Z,100244.84
2023-01-19T23:18:43.011Z,100244.84
2023-01-19T23:21:15.632Z,100239.53
2023-01-19T23:23:43.460Z,100243.03
2023-01-19T23:26:21.665Z,100244.84
2023-01-19T23:28:56.728Z,100244.84
2023-01-19T23:31:28.795Z,100251.84
2023-01-19T23:33:57.377Z,100255.47
2023-01-19T23:36:26.291Z,100258.25
2023-01-19T23:38:55.252Z,100252.22
2023-01-19T23:41:22.692Z,100261.06
2023-01-19T23:43:49.427Z,100270.00
2023-01-19T23:46:17.731Z,100266.38
2023-01-19T23:48:44.671Z,100275.31
2023-01-19T23:51:15.178Z,100279.78
2023-01-19T23:53:42.140Z,100278.22
2023-01-19T23:56:17.557Z,100277.25
2023-01-19T23:58:45.524Z,100277.38
